createdAt,value
2017-10-31T00:01:32.866Z,101412.05
2017-10-31T00:04:02.124Z,101408.81
2017-10-31T00:06:32.108Z,101400.30
2017-10-31T00:09:02.187Z,101405.30
2017-10-31T00:11:31.408Z,101406.37
2017-10-31T00:14:00.624Z,101404.37
2017-10-31T00:16:29.849Z,101404.62
2017-10-31T00:19:00.639Z,101402.87
2017-10-31T00:21:29.867Z,101399.48
2017-10-31T00:23:59.841Z,101394.74
2017-10-31T00:26:29.234Z,101400.30
2017-10-31T00:28:58.427Z,101395.56
2017-10-31T00:31:27.759Z,101396.48
2017-10-31T00:33:56.983Z,101402.56
2017-10-31T00:36:26.968Z,101401.22
2017-10-31T00:38:56.199Z,101401.77
2017-10-31T00:41:26.167Z,101401.50
2017-10-31T00:43:55.408Z,101396.09
2017-10-31T00:46:25.380Z,101399.59
2017-10-31T00:48:54.581Z,101399.86
2017-10-31T00:51:23.803Z,101393.89
2017-10-31T00:53:53.100Z,101398.50
2017-10-31T00:56:22.292Z,101399.03
2017-10-31T00:58:51.576Z,101394.68
2017-10-31T01:01:21.093Z,101389.95
2017-10-31T01:03:50.324Z,101394.84
2017-10-31T01:06:20.302Z,101394.59
2017-10-31T01:08:49.522Z,101396.33
2017-10-31T01:11:18.768Z,101395.09
2017-10-31T01:13:47.952Z,101396.03
2017-10-31T01:16:17.291Z,101397.00
2017-10-31T01:18:46.580Z,101388.31
2017-10-31T01:21:15.789Z,101382.27
2017-10-31T01:23:45.013Z,101385.90
2017-10-31T01:26:14.311Z,101381.67
2017-10-31T01:28:43.515Z,101378.86
2017-10-31T01:31:13.516Z,101376.81
2017-10-31T01:33:42.723Z,101384.42
2017-10-31T01:36:13.444Z,101376.52
2017-10-31T01:38:42.648Z,101364.48
2017-10-31T01:41:12.154Z,101376.02
2017-10-31T01:43:41.533Z,101377.23
2017-10-31T01:46:10.749Z,101380.45
2017-10-31T01:48:40.696Z,101369.61
2017-10-31T01:51:09.915Z,101373.02
2017-10-31T01:53:39.191Z,101376.13
2017-10-31T01:56:08.399Z,101378.53
2017-10-31T01:58:37.604Z,101369.62
2017-10-31T02:01:06.832Z,101371.66
2017-10-31T02:03:36.030Z,101373.14
2017-10-31T02:06:05.328Z,101375.72
2017-10-31T02:08:34.539Z,101375.59
2017-10-31T02:11:05.291Z,101371.11
2017-10-31T02:13:35.283Z,101376.80
2017-10-31T02:16:05.978Z,101373.83
2017-10-31T02:18:35.191Z,101368.44
2017-10-31T02:21:04.377Z,101360.98
2017-10-31T02:23:33.572Z,101366.38
2017-10-31T02:26:03.136Z,101361.65
2017-10-31T02:28:33.116Z,101366.38
2017-10-31T02:31:02.303Z,101370.00
2017-10-31T02:33:31.515Z,101360.79
2017-10-31T02:36:00.711Z,101354.59
2017-10-31T02:38:47.552Z,101364.19
2017-10-31T02:41:17.514Z,101367.80
2017-10-31T02:43:46.906Z,101364.95
2017-10-31T02:46:16.207Z,101356.17
2017-10-31T02:48:45.562Z,101365.50
2017-10-31T02:51:14.740Z,101369.98
2017-10-31T02:53:43.952Z,101363.50
2017-10-31T02:56:13.299Z,101356.38
2017-10-31T02:58:42.487Z,101356.91
2017-10-31T03:01:11.738Z,101363.42
2017-10-31T03:03:40.927Z,101365.44
2017-10-31T03:06:10.148Z,101361.78
2017-10-31T03:08:40.111Z,101349.77
2017-10-31T03:11:09.307Z,101351.81
2017-10-31T03:13:38.586Z,101347.77
2017-10-31T03:16:07.924Z,101350.20
2017-10-31T03:18:37.239Z,101351.27
2017-10-31T03:21:06.443Z,101355.08
2017-10-31T03:23:35.659Z,101348.70
2017-10-31T03:26:05.627Z,101346.11
2017-10-31T03:28:34.847Z,101346.80
2017-10-31T03:31:04.063Z,101342.08
2017-10-31T03:33:33.309Z,101343.59
2017-10-31T03:36:02.497Z,101333.71
2017-10-31T03:38:31.927Z,101344.84
2017-10-31T03:41:01.176Z,101338.34
2017-10-31T03:43:30.399Z,101334.96
2017-10-31T03:45:59.608Z,101327.95
2017-10-31T03:48:28.815Z,101332.68
2017-10-31T03:50:58.047Z,101333.36
2017-10-31T03:53:27.251Z,101328.66
2017-10-31T03:55:57.228Z,101330.28
2017-10-31T03:58:26.543Z,101333.78
2017-10-31T04:00:55.726Z,101336.75
2017-10-31T04:03:25.131Z,101335.12
2017-10-31T04:05:54.351Z,101336.45
2017-10-31T04:08:25.083Z,101338.61
2017-10-31T04:10:54.267Z,101337.00
2017-10-31T04:13:23.488Z,101336.72
2017-10-31T04:15:52.687Z,101335.06
2017-10-31T04:18:21.888Z,101332.25
2017-10-31T04:20:51.892Z,101331.70
2017-10-31T04:23:22.670Z,101332.37
2017-10-31T04:25:51.904Z,101343.17
2017-10-31T04:28:21.207Z,101336.28
2017-10-31T04:30:50.432Z,101333.03
2017-10-31T04:33:20.403Z,101330.43
2017-10-31T04:35:49.722Z,101323.81
2017-10-31T04:38:18.912Z,101327.05
2017-10-31T04:40:48.216Z,101326.14
2017-10-31T04:43:17.448Z,101325.05
2017-10-31T04:45:47.426Z,101325.59
2017-10-31T04:48:16.670Z,101326.41
2017-10-31T04:50:46.610Z,101325.59
2017-10-31T04:53:15.844Z,101321.66
2017-10-31T04:55:45.115Z,101326.25
2017-10-31T04:58:14.287Z,101320.16
2017-10-31T05:00:43.486Z,101314.87
2017-10-31T05:03:12.724Z,101313.95
2017-10-31T05:05:41.918Z,101304.32
2017-10-31T05:08:11.216Z,101309.88
2017-10-31T05:10:40.426Z,101308.95
2017-10-31T05:13:09.655Z,101309.48
2017-10-31T05:15:39.606Z,101305.38
2017-10-31T05:18:08.816Z,101312.41
2017-10-31T05:20:38.031Z,101309.99
2017-10-31T05:23:07.299Z,101307.69
2017-10-31T05:25:36.757Z,101306.09
2017-10-31T05:28:05.975Z,101309.59
2017-10-31T05:30:35.947Z,101309.31
2017-10-31T05:33:05.191Z,101308.36
2017-10-31T05:35:35.139Z,101301.45
2017-10-31T05:38:04.352Z,101309.97
2017-10-31T05:40:33.565Z,101312.27
2017-10-31T05:43:02.828Z,101313.20
2017-10-31T05:45:32.052Z,101315.23
2017-10-31T05:48:01.258Z,101308.58
2017-10-31T05:50:30.490Z,101308.30
2017-10-31T05:53:00.471Z,101313.17
2017-10-31T05:55:29.686Z,101311.94
2017-10-31T05:57:59.659Z,101308.95
2017-10-31T06:00:29.663Z,101306.24
2017-10-31T06:02:58.850Z,101310.26
2017-10-31T06:05:28.087Z,101309.76
2017-10-31T06:07:57.298Z,101310.56
2017-10-31T06:10:26.812Z,101312.71
2017-10-31T06:12:56.056Z,101313.09
2017-10-31T06:15:25.432Z,101317.39
2017-10-31T06:17:54.664Z,101321.17
2017-10-31T06:20:23.869Z,101320.51
2017-10-31T06:36:20.622Z,101317.84
2017-10-31T06:38:49.871Z,101322.56
2017-10-31T06:41:19.098Z,101320.92
2017-10-31T06:43:48.287Z,101321.07
2017-10-31T06:46:17.602Z,101330.53
2017-10-31T06:48:46.959Z,101325.20
2017-10-31T06:51:16.920Z,101328.48
2017-10-31T06:53:46.156Z,101330.12
2017-10-31T06:56:16.108Z,101335.78
2017-10-31T06:58:45.328Z,101322.94
2017-10-31T07:01:16.071Z,101329.30
2017-10-31T07:03:45.326Z,101328.59
2017-10-31T07:06:15.325Z,101327.00
2017-10-31T07:08:45.348Z,101330.62
2017-10-31T07:11:14.567Z,101327.66
2017-10-31T07:13:43.825Z,101328.45
2017-10-31T07:16:13.116Z,101330.16
2017-10-31T07:18:43.152Z,101329.84
2017-10-31T07:21:12.386Z,101329.30
2017-10-31T07:23:41.651Z,101326.47
2017-10-31T07:26:11.633Z,101324.14
2017-10-31T07:28:42.391Z,101330.25
2017-10-31T07:31:12.352Z,101333.59
2017-10-31T07:33:41.582Z,101334.66
2017-10-31T07:36:10.806Z,101333.95
2017-10-31T07:38:40.043Z,101333.48
2017-10-31T07:41:09.247Z,101333.75
2017-10-31T07:43:38.474Z,101335.39
2017-10-31T07:46:07.669Z,101335.66
2017-10-31T07:48:36.895Z,101332.28
2017-10-31T07:51:06.111Z,101339.14
2017-10-31T07:53:35.422Z,101338.09
2017-10-31T07:56:04.619Z,101339.16
2017-10-31T07:58:33.877Z,101340.38
2017-10-31T08:01:03.182Z,101335.21
2017-10-31T08:03:32.430Z,101338.87
2017-10-31T08:06:01.677Z,101338.95
2017-10-31T08:08:30.899Z,101338.23
2017-10-31T08:11:00.211Z,101340.91
2017-10-31T08:13:29.408Z,101333.88
2017-10-31T08:15:58.618Z,101332.44
2017-10-31T08:18:27.852Z,101332.21
2017-10-31T08:20:57.090Z,101330.92
2017-10-31T08:23:26.298Z,101328.78
2017-10-31T08:25:55.588Z,101335.88
2017-10-31T08:28:24.770Z,101332.97
2017-10-31T08:30:54.016Z,101334.29
2017-10-31T08:33:23.220Z,101336.37
2017-10-31T08:35:52.462Z,101338.73
2017-10-31T08:38:21.751Z,101338.00
2017-10-31T08:40:51.015Z,101331.60
2017-10-31T08:43:20.383Z,101334.63
2017-10-31T08:45:49.709Z,101343.38
2017-10-31T08:48:20.785Z,101338.86
2017-10-31T08:50:50.835Z,101344.84
2017-10-31T08:53:20.163Z,101342.33
2017-10-31T08:55:49.579Z,101327.47
2017-10-31T08:58:19.100Z,101326.42
2017-10-31T09:00:49.571Z,101338.34
2017-10-31T09:03:21.002Z,101336.48
2017-10-31T09:05:51.043Z,101327.91
2017-10-31T09:08:20.284Z,101334.27
2017-10-31T09:10:50.328Z,101325.69
2017-10-31T09:13:19.939Z,101323.91
2017-10-31T09:15:49.168Z,101329.80
2017-10-31T09:18:18.455Z,101326.84
2017-10-31T09:20:47.810Z,101327.80
2017-10-31T09:23:17.051Z,101333.63
2017-10-31T09:25:47.122Z,101335.19
2017-10-31T09:28:16.955Z,101335.17
2017-10-31T09:30:46.945Z,101332.71
2017-10-31T09:33:16.182Z,101329.66
2017-10-31T09:35:45.573Z,101334.17
2017-10-31T09:38:14.805Z,101333.50
2017-10-31T09:40:44.123Z,101330.02
2017-10-31T09:43:13.496Z,101329.63
2017-10-31T09:45:42.738Z,101321.00
2017-10-31T09:48:13.443Z,101323.27
2017-10-31T09:50:42.741Z,101320.59
2017-10-31T09:53:11.987Z,101315.60
2017-10-31T09:55:41.219Z,101318.94
2017-10-31T09:58:10.456Z,101314.77
2017-10-31T10:00:39.704Z,101318.77
2017-10-31T10:03:08.934Z,101315.15
2017-10-31T10:05:38.223Z,101311.70
2017-10-31T10:08:07.769Z,101317.90
2017-10-31T10:10:37.060Z,101313.57
2017-10-31T10:13:06.272Z,101314.13
2017-10-31T10:15:35.516Z,101305.39
2017-10-31T10:18:05.152Z,101309.58
2017-10-31T10:20:34.403Z,101309.77
2017-10-31T10:23:03.635Z,101308.30
2017-10-31T10:25:32.850Z,101305.27
2017-10-31T10:28:03.597Z,101304.22
2017-10-31T10:30:36.614Z,101301.42
2017-10-31T10:33:05.908Z,101298.52
2017-10-31T10:35:35.136Z,101300.33
2017-10-31T10:38:04.367Z,101292.94
2017-10-31T10:40:33.604Z,101295.02
2017-10-31T10:43:02.852Z,101292.36
2017-10-31T10:45:32.159Z,101294.12
2017-10-31T10:48:01.409Z,101290.72
2017-10-31T10:50:30.632Z,101294.72
2017-10-31T10:52:59.840Z,101294.39
2017-10-31T10:55:29.092Z,101290.84
2017-10-31T10:57:59.104Z,101282.86
2017-10-31T11:00:48.736Z,101281.75
2017-10-31T11:03:22.627Z,101280.69
2017-10-31T11:05:51.882Z,101282.32
2017-10-31T11:08:21.892Z,101277.63
2017-10-31T11:10:51.176Z,101267.03
2017-10-31T11:13:20.413Z,101261.32
2017-10-31T11:15:49.913Z,101253.23
2017-10-31T11:18:19.915Z,101252.52
2017-10-31T11:20:49.826Z,101252.64
2017-10-31T11:23:19.819Z,101251.70
2017-10-31T11:25:50.597Z,101251.70
2017-10-31T11:28:20.591Z,101249.09
2017-10-31T11:30:50.779Z,101249.78
2017-10-31T11:33:20.811Z,101249.97
2017-10-31T11:35:50.148Z,101249.02
2017-10-31T11:38:19.600Z,101250.19
2017-10-31T11:40:49.083Z,101246.70
2017-10-31T11:43:18.289Z,101245.62
2017-10-31T11:45:47.534Z,101242.31
2017-10-31T11:48:18.226Z,101245.59
2017-10-31T11:50:47.644Z,101242.36
2017-10-31T11:53:16.852Z,101231.02
2017-10-31T11:55:46.068Z,101228.11
2017-10-31T11:58:16.099Z,101226.53
2017-10-31T12:00:45.327Z,101227.64
2017-10-31T12:03:14.561Z,101226.41
2017-10-31T12:05:43.781Z,101228.27
2017-10-31T12:08:13.779Z,101222.85
2017-10-31T12:10:44.107Z,101224.98
2017-10-31T12:13:13.492Z,101221.77
2017-10-31T12:15:42.710Z,101216.26
2017-10-31T12:18:12.720Z,101215.80
2017-10-31T12:20:42.720Z,101212.36
2017-10-31T12:23:11.959Z,101206.83
2017-10-31T12:25:41.194Z,101208.09
2017-10-31T12:28:10.438Z,101205.56
2017-10-31T12:30:40.425Z,101203.61
2017-10-31T12:33:09.677Z,101200.98
2017-10-31T12:35:38.900Z,101193.88
2017-10-31T12:38:08.111Z,101197.48
2017-10-31T12:40:37.364Z,101196.06
2017-10-31T12:43:06.688Z,101197.55
2017-10-31T12:45:35.956Z,101199.09
2017-10-31T12:48:05.964Z,101196.19
2017-10-31T12:50:35.956Z,101197.77
2017-10-31T12:55:41.442Z,101195.91
2017-10-31T12:58:11.416Z,101191.42
2017-10-31T13:00:40.652Z,101191.56
2017-10-31T13:03:10.755Z,101193.15
2017-10-31T13:05:40.770Z,101178.77
2017-10-31T13:08:09.997Z,101181.45
2017-10-31T13:10:39.984Z,101177.28
2017-10-31T13:13:09.316Z,101178.36
2017-10-31T13:15:38.548Z,101178.72
2017-10-31T13:18:07.806Z,101184.49
2017-10-31T13:20:37.783Z,101186.24
2017-10-31T13:23:07.848Z,101180.60
2017-10-31T13:25:37.081Z,101173.64
2017-10-31T13:28:07.204Z,101174.20
2017-10-31T13:30:37.451Z,101172.22
2017-10-31T13:33:07.732Z,101173.29
2017-10-31T13:35:37.974Z,101178.31
2017-10-31T13:38:10.089Z,101170.31
2017-10-31T13:40:40.406Z,101172.66
2017-10-31T13:43:10.777Z,101171.55
2017-10-31T13:45:40.074Z,101169.45
2017-10-31T13:48:10.046Z,101171.45
2017-10-31T13:50:40.973Z,101163.36
2017-10-31T13:53:10.963Z,101169.78
2017-10-31T13:55:40.205Z,101165.21
2017-10-31T13:58:10.193Z,101162.33
2017-10-31T14:00:40.176Z,101159.20
2017-10-31T14:03:10.322Z,101156.23
2017-10-31T14:05:40.495Z,101154.86
2017-10-31T14:08:10.617Z,101157.92
2017-10-31T14:10:40.048Z,101153.05
2017-10-31T14:13:09.314Z,101159.06
2017-10-31T14:15:38.787Z,101150.16
2017-10-31T14:18:11.390Z,101146.42
2017-10-31T14:20:40.687Z,101145.15
2017-10-31T14:23:09.968Z,101140.73
2017-10-31T14:25:39.310Z,101138.81
2017-10-31T14:28:08.695Z,101130.22
2017-10-31T14:30:37.953Z,101137.98
2017-10-31T14:33:07.964Z,101127.47
2017-10-31T14:35:37.164Z,101132.39
2017-10-31T14:38:06.487Z,101129.58
2017-10-31T14:40:35.726Z,101123.80
2017-10-31T14:43:05.311Z,101126.52
2017-10-31T14:45:34.531Z,101123.64
2017-10-31T14:48:03.836Z,101116.38
2017-10-31T14:50:33.109Z,101113.34
2017-10-31T14:53:02.369Z,101112.20
2017-10-31T14:55:31.720Z,101113.84
2017-10-31T14:58:00.967Z,101105.56
2017-10-31T15:00:31.004Z,101109.89
2017-10-31T15:03:00.244Z,101107.61
2017-10-31T15:05:29.619Z,101111.70
2017-10-31T15:07:58.879Z,101105.57
2017-10-31T15:10:28.903Z,101103.04
2017-10-31T15:12:58.895Z,101094.48
2017-10-31T15:15:28.116Z,101096.21
2017-10-31T15:17:58.142Z,101103.05
2017-10-31T15:20:28.108Z,101099.12
2017-10-31T15:22:57.371Z,101098.97
2017-10-31T15:25:26.619Z,101094.02
2017-10-31T15:27:57.575Z,101098.63
2017-10-31T15:30:27.587Z,101088.40
2017-10-31T15:32:57.615Z,101078.14
2017-10-31T15:35:27.612Z,101077.12
2017-10-31T15:37:57.009Z,101078.81
2017-10-31T15:40:26.295Z,101077.36
2017-10-31T15:42:55.568Z,101074.86
2017-10-31T15:45:24.916Z,101081.10
2017-10-31T15:47:54.164Z,101076.16
2017-10-31T15:50:23.423Z,101076.06
2017-10-31T15:52:53.420Z,101071.46
2017-10-31T15:55:22.733Z,101073.28
2017-10-31T15:57:52.755Z,101074.70
2017-10-31T16:00:22.146Z,101074.48
2017-10-31T16:02:51.772Z,101075.20
2017-10-31T16:05:21.053Z,101073.53
2017-10-31T16:07:50.309Z,101072.78
2017-10-31T16:10:19.609Z,101070.93
2017-10-31T16:12:48.952Z,101077.20
2017-10-31T16:15:18.977Z,101070.56
2017-10-31T16:17:49.039Z,101072.22
2017-10-31T16:20:18.267Z,101065.73
2017-10-31T16:22:49.008Z,101069.44
2017-10-31T16:25:18.268Z,101067.68
2017-10-31T16:27:47.517Z,101067.92
2017-10-31T16:30:16.791Z,101071.44
2017-10-31T16:32:46.060Z,101085.03
2017-10-31T16:35:15.368Z,101072.62
2017-10-31T16:37:44.574Z,101074.16
2017-10-31T16:40:13.818Z,101082.32
2017-10-31T16:42:43.828Z,101074.47
2017-10-31T16:45:13.108Z,101076.23
2017-10-31T16:47:42.404Z,101084.84
2017-10-31T16:50:13.163Z,101073.81
2017-10-31T16:52:43.592Z,101077.95
2017-10-31T16:55:13.777Z,101077.80
2017-10-31T16:57:43.017Z,101077.73
2017-10-31T17:00:13.097Z,101080.98
2017-10-31T17:02:42.369Z,101083.91
2017-10-31T17:05:11.613Z,101079.43
2017-10-31T17:07:41.831Z,101081.59
2017-10-31T17:10:11.065Z,101077.00
2017-10-31T17:12:40.315Z,101070.21
2017-10-31T17:15:10.334Z,101068.92
2017-10-31T17:17:39.667Z,101070.17
2017-10-31T17:20:09.671Z,101065.48
2017-10-31T17:22:39.688Z,101070.77
2017-10-31T17:25:09.702Z,101066.61
2017-10-31T17:27:39.719Z,101072.25
2017-10-31T17:30:09.760Z,101073.34
2017-10-31T17:32:39.776Z,101069.89
2017-10-31T17:35:09.113Z,101073.56
2017-10-31T17:37:38.434Z,101078.38
2017-10-31T17:40:08.466Z,101076.27
2017-10-31T17:42:38.461Z,101076.92
2017-10-31T17:45:07.900Z,101075.31
2017-10-31T17:47:37.154Z,101080.66
2017-10-31T17:50:09.347Z,101074.45
2017-10-31T17:52:38.619Z,101065.70
2017-10-31T17:55:07.905Z,101069.55
2017-10-31T17:57:37.157Z,101066.30
2017-10-31T18:00:07.164Z,101062.62
2017-10-31T18:02:37.290Z,101061.81
2017-10-31T18:05:08.218Z,101069.31
2017-10-31T18:07:37.757Z,101058.93
2017-10-31T18:10:07.006Z,101057.69
2017-10-31T18:12:38.070Z,101054.56
2017-10-31T18:15:08.083Z,101048.45
2017-10-31T18:17:37.584Z,101051.47
2017-10-31T18:20:07.601Z,101046.27
2017-10-31T18:22:37.740Z,101053.61
2017-10-31T18:25:07.053Z,101042.98
2017-10-31T18:27:36.274Z,101038.92
2017-10-31T18:30:05.559Z,101033.52
2017-10-31T18:32:34.838Z,101044.80
2017-10-31T18:35:04.895Z,101031.52
2017-10-31T18:37:34.144Z,101037.57
2017-10-31T18:40:04.188Z,101034.70
2017-10-31T18:42:33.427Z,101031.22
2017-10-31T18:45:04.220Z,101032.94
2017-10-31T18:47:33.554Z,101027.91
2017-10-31T18:50:02.791Z,101021.30
2017-10-31T18:52:32.040Z,101021.92
2017-10-31T18:55:01.342Z,101016.68
2017-10-31T18:57:30.652Z,101016.41
2017-10-31T19:00:01.424Z,101012.91
2017-10-31T19:02:31.443Z,101006.09
2017-10-31T19:05:00.704Z,101010.01
2017-10-31T19:07:31.518Z,101003.80
2017-10-31T19:10:00.752Z,101006.09
2017-10-31T19:12:30.823Z,100999.23
2017-10-31T19:15:00.085Z,100994.95
2017-10-31T19:17:30.104Z,100993.74
2017-10-31T19:19:59.335Z,100992.23
2017-10-31T19:22:28.632Z,100989.97
2017-10-31T19:24:57.932Z,100988.55
2017-10-31T19:27:27.236Z,100993.16
2017-10-31T19:29:56.510Z,100992.63
2017-10-31T19:32:25.831Z,100991.73
2017-10-31T19:34:55.062Z,100991.64
2017-10-31T19:37:24.331Z,100988.22
2017-10-31T19:39:53.613Z,100986.52
2017-10-31T19:42:22.884Z,100993.25
2017-10-31T19:44:52.954Z,100985.25
2017-10-31T19:47:22.211Z,100991.48
2017-10-31T19:49:51.538Z,100979.59
2017-10-31T19:52:20.785Z,100982.87
2017-10-31T19:54:50.935Z,100986.36
2017-10-31T19:57:20.205Z,100982.31
2017-10-31T19:59:49.456Z,100980.12
2017-10-31T20:02:18.678Z,100978.23
2017-10-31T20:04:47.902Z,100973.36
2017-10-31T20:07:17.138Z,100975.42
2017-10-31T20:09:46.349Z,100976.08
2017-10-31T20:12:15.619Z,100981.36
2017-10-31T20:14:44.842Z,100985.71
2017-10-31T20:17:14.073Z,100977.68
2017-10-31T20:19:43.288Z,100977.00
2017-10-31T20:22:12.536Z,100979.66
2017-10-31T20:24:41.775Z,100979.19
2017-10-31T20:27:11.031Z,100977.16
2017-10-31T20:29:40.280Z,100982.53
2017-10-31T20:32:09.515Z,100983.33
2017-10-31T20:34:38.765Z,100982.93
2017-10-31T20:37:07.973Z,100980.92
2017-10-31T20:39:37.243Z,100982.06
2017-10-31T20:42:06.488Z,100976.44
2017-10-31T20:44:36.795Z,100987.97
2017-10-31T20:47:06.841Z,100978.61
2017-10-31T20:49:36.089Z,100972.16
2017-10-31T20:52:05.477Z,100980.37
2017-10-31T20:54:34.716Z,100979.41
2017-10-31T20:57:04.718Z,100980.55
2017-10-31T20:59:35.481Z,100979.04
2017-10-31T21:02:04.701Z,100985.09
2017-10-31T21:04:33.961Z,100986.85
2017-10-31T21:07:03.343Z,100984.29
2017-10-31T21:09:32.580Z,100980.28
2017-10-31T21:12:01.832Z,100985.98
2017-10-31T21:14:31.152Z,100989.73
2017-10-31T21:17:01.147Z,100987.41
2017-10-31T21:19:30.372Z,100984.35
2017-10-31T21:21:59.596Z,100980.46
2017-10-31T21:24:28.818Z,100975.89
2017-10-31T21:26:58.053Z,100981.75
2017-10-31T21:29:27.294Z,100979.03
2017-10-31T21:31:56.535Z,100971.50
2017-10-31T21:34:25.766Z,100972.95
2017-10-31T21:36:55.778Z,100972.40
2017-10-31T21:39:25.790Z,100962.64
2017-10-31T21:41:55.916Z,100967.09
2017-10-31T21:44:26.082Z,100969.80
2017-10-31T21:46:55.331Z,100960.77
2017-10-31T21:49:25.496Z,100959.50
2017-10-31T21:51:54.734Z,100961.91
2017-10-31T21:54:23.976Z,100957.64
2017-10-31T21:56:53.235Z,100964.18
2017-10-31T21:59:23.263Z,100963.92
2017-10-31T22:01:53.251Z,100959.05
2017-10-31T22:04:22.498Z,100953.95
2017-10-31T22:06:51.931Z,100955.50
2017-10-31T22:09:21.172Z,100961.02
2017-10-31T22:11:51.173Z,100953.58
2017-10-31T22:14:20.436Z,100951.77
2017-10-31T22:16:49.643Z,100949.46
2017-10-31T22:19:18.877Z,100941.47
2017-10-31T22:21:48.127Z,100941.90
2017-10-31T22:24:17.458Z,100945.22
2017-10-31T22:26:46.708Z,100942.37
2017-10-31T22:29:15.944Z,100936.13
2017-10-31T22:31:45.175Z,100925.42
2017-10-31T22:34:15.352Z,100918.51
2017-10-31T22:36:44.634Z,100921.20
2017-10-31T22:39:13.865Z,100915.31
2017-10-31T22:41:43.257Z,100915.80
2017-10-31T22:44:12.472Z,100911.15
2017-10-31T22:46:42.552Z,100920.20
2017-10-31T22:49:11.783Z,100912.30
2017-10-31T22:51:42.530Z,100909.55
2017-10-31T22:54:12.026Z,100917.44
2017-10-31T22:56:41.306Z,100913.61
2017-10-31T22:59:10.620Z,100910.69
2017-10-31T23:01:39.854Z,100911.19
2017-10-31T23:04:09.128Z,100905.64
2017-10-31T23:06:38.335Z,100904.13
2017-10-31T23:09:08.342Z,100898.17
2017-10-31T23:11:38.359Z,100893.76
2017-10-31T23:14:07.697Z,100901.40
2017-10-31T23:16:36.924Z,100903.41
2017-10-31T23:19:06.150Z,100895.73
2017-10-31T23:21:36.154Z,100900.84
2017-10-31T23:24:05.535Z,100898.45
2017-10-31T23:26:34.754Z,100898.95
2017-10-31T23:29:05.500Z,100890.45
2017-10-31T23:31:35.496Z,100899.83
2017-10-31T23:34:04.727Z,100897.69
2017-10-31T23:36:34.727Z,100886.77
2017-10-31T23:39:03.936Z,100878.59
2017-10-31T23:41:33.254Z,100879.89
2017-10-31T23:44:03.235Z,100881.72
2017-10-31T23:46:33.960Z,100880.85
2017-10-31T23:49:03.169Z,100882.05
2017-10-31T23:51:32.387Z,100881.66
2017-10-31T23:54:02.409Z,100876.84
2017-10-31T23:56:32.404Z,100879.66
2017-10-31T23:59:02.423Z,100873.52
